sensor_id;sensor_type;location;lat;lon;timestamp;P1;durP1;ratioP1;P2;durP2;ratioP2
18196;SDS011;9224;52.422;13.024;2022-11-15T00:01:24;37.83;;;22.87;;
18196;SDS011;9224;52.422;13.024;2022-11-15T00:03:51;34.53;;;24.03;;
18196;SDS011;9224;52.422;13.024;2022-11-15T00:06:18;35.60;;;24.33;;
18196;SDS011;9224;52.422;13.024;2022-11-15T00:08:44;34.50;;;23.87;;
18196;SDS011;9224;52.422;13.024;2022-11-15T00:11:11;33.77;;;23.93;;
18196;SDS011;9224;52.422;13.024;2022-11-15T00:13:39;35.50;;;24.60;;
18196;SDS011;9224;52.422;13.024;2022-11-15T00:16:08;35.17;;;23.53;;
18196;SDS011;9224;52.422;13.024;2022-11-15T00:18:35;33.97;;;22.97;;
18196;SDS011;9224;52.422;13.024;2022-11-15T00:21:03;35.00;;;23.63;;
18196;SDS011;9224;52.422;13.024;2022-11-15T00:23:31;35.93;;;25.07;;
18196;SDS011;9224;52.422;13.024;2022-11-15T00:25:58;35.83;;;24.53;;
18196;SDS011;9224;52.422;13.024;2022-11-15T00:28:25;35.40;;;24.57;;
18196;SDS011;9224;52.422;13.024;2022-11-15T00:30:52;37.37;;;24.97;;
18196;SDS011;9224;52.422;13.024;2022-11-15T00:33:20;35.67;;;24.30;;
18196;SDS011;9224;52.422;13.024;2022-11-15T00:35:46;35.97;;;23.70;;
18196;SDS011;9224;52.422;13.024;2022-11-15T00:38:13;33.83;;;24.00;;
18196;SDS011;9224;52.422;13.024;2022-11-15T00:40:40;35.97;;;24.37;;
18196;SDS011;9224;52.422;13.024;2022-11-15T00:43:06;34.30;;;24.13;;
18196;SDS011;9224;52.422;13.024;2022-11-15T00:45:33;33.67;;;23.17;;
18196;SDS011;9224;52.422;13.024;2022-11-15T00:48:00;35.33;;;24.17;;
18196;SDS011;9224;52.422;13.024;2022-11-15T00:50:28;35.77;;;24.90;;
18196;SDS011;9224;52.422;13.024;2022-11-15T00:52:54;33.77;;;22.80;;
18196;SDS011;9224;52.422;13.024;2022-11-15T00:55:21;34.20;;;22.60;;
18196;SDS011;9224;52.422;13.024;2022-11-15T00:57:48;34.37;;;22.83;;
18196;SDS011;9224;52.422;13.024;2022-11-15T01:00:14;31.73;;;22.53;;
18196;SDS011;9224;52.422;13.024;2022-11-15T01:02:41;35.63;;;24.73;;
18196;SDS011;9224;52.422;13.024;2022-11-15T01:05:08;33.20;;;24.07;;
18196;SDS011;9224;52.422;13.024;2022-11-15T01:07:36;31.47;;;22.57;;
18196;SDS011;9224;52.422;13.024;2022-11-15T01:10:03;31.70;;;22.30;;
18196;SDS011;9224;52.422;13.024;2022-11-15T01:12:30;34.30;;;23.23;;
18196;SDS011;9224;52.422;13.024;2022-11-15T01:14:57;32.10;;;23.10;;
18196;SDS011;9224;52.422;13.024;2022-11-15T01:17:23;34.90;;;23.37;;
18196;SDS011;9224;52.422;13.024;2022-11-15T01:19:50;34.73;;;22.20;;
18196;SDS011;9224;52.422;13.024;2022-11-15T01:22:17;33.67;;;22.23;;
18196;SDS011;9224;52.422;13.024;2022-11-15T01:24:45;32.90;;;23.37;;
18196;SDS011;9224;52.422;13.024;2022-11-15T01:27:11;34.60;;;22.67;;
18196;SDS011;9224;52.422;13.024;2022-11-15T01:29:38;32.63;;;22.97;;
18196;SDS011;9224;52.422;13.024;2022-11-15T01:32:04;31.37;;;22.43;;
18196;SDS011;9224;52.422;13.024;2022-11-15T01:34:31;37.03;;;22.93;;
18196;SDS011;9224;52.422;13.024;2022-11-15T01:36:58;34.50;;;22.90;;
18196;SDS011;9224;52.422;13.024;2022-11-15T01:39:24;32.57;;;22.30;;
18196;SDS011;9224;52.422;13.024;2022-11-15T01:41:53;32.67;;;21.80;;
18196;SDS011;9224;52.422;13.024;2022-11-15T01:44:40;36.23;;;23.40;;
18196;SDS011;9224;52.422;13.024;2022-11-15T01:47:09;37.70;;;24.00;;
18196;SDS011;9224;52.422;13.024;2022-11-15T01:49:39;34.57;;;22.00;;
18196;SDS011;9224;52.422;13.024;2022-11-15T01:52:08;34.27;;;23.70;;
18196;SDS011;9224;52.422;13.024;2022-11-15T01:54:36;38.67;;;23.97;;
18196;SDS011;9224;52.422;13.024;2022-11-15T01:57:05;35.77;;;23.10;;
18196;SDS011;9224;52.422;13.024;2022-11-15T01:59:33;36.17;;;22.37;;
18196;SDS011;9224;52.422;13.024;2022-11-15T02:02:00;38.03;;;24.07;;
18196;SDS011;9224;52.422;13.024;2022-11-15T02:04:27;36.30;;;24.23;;
18196;SDS011;9224;52.422;13.024;2022-11-15T02:06:54;33.90;;;23.53;;
18196;SDS011;9224;52.422;13.024;2022-11-15T02:09:21;37.30;;;24.37;;
18196;SDS011;9224;52.422;13.024;2022-11-15T02:11:48;35.63;;;23.20;;
18196;SDS011;9224;52.422;13.024;2022-11-15T02:14:17;36.23;;;23.77;;
18196;SDS011;9224;52.422;13.024;2022-11-15T02:16:46;33.20;;;22.43;;
18196;SDS011;9224;52.422;13.024;2022-11-15T02:19:20;36.80;;;23.50;;
18196;SDS011;9224;52.422;13.024;2022-11-15T02:21:58;39.47;;;24.43;;
18196;SDS011;9224;52.422;13.024;2022-11-15T02:27:40;34.20;;;22.53;;
18196;SDS011;9224;52.422;13.024;2022-11-15T02:30:25;33.90;;;23.17;;
18196;SDS011;9224;52.422;13.024;2022-11-15T02:32:58;39.23;;;23.47;;
18196;SDS011;9224;52.422;13.024;2022-11-15T02:35:29;35.53;;;22.03;;
18196;SDS011;9224;52.422;13.024;2022-11-15T02:37:59;34.30;;;22.67;;
18196;SDS011;9224;52.422;13.024;2022-11-15T02:40:34;29.30;;;20.53;;
18196;SDS011;9224;52.422;13.024;2022-11-15T02:43:04;36.73;;;24.10;;
18196;SDS011;9224;52.422;13.024;2022-11-15T02:45:54;34.03;;;22.40;;
18196;SDS011;9224;52.422;13.024;2022-11-15T02:48:24;32.30;;;21.37;;
18196;SDS011;9224;52.422;13.024;2022-11-15T02:50:52;31.20;;;21.13;;
18196;SDS011;9224;52.422;13.024;2022-11-15T02:53:23;33.87;;;22.93;;
18196;SDS011;9224;52.422;13.024;2022-11-15T02:55:50;32.07;;;20.93;;
18196;SDS011;9224;52.422;13.024;2022-11-15T02:58:25;30.60;;;21.63;;
18196;SDS011;9224;52.422;13.024;2022-11-15T03:01:03;30.60;;;20.73;;
18196;SDS011;9224;52.422;13.024;2022-11-15T03:03:40;31.67;;;20.47;;
18196;SDS011;9224;52.422;13.024;2022-11-15T03:06:16;29.27;;;20.53;;
18196;SDS011;9224;52.422;13.024;2022-11-15T03:08:48;30.23;;;20.57;;
18196;SDS011;9224;52.422;13.024;2022-11-15T03:11:19;28.83;;;20.53;;
18196;SDS011;9224;52.422;13.024;2022-11-15T03:13:48;29.23;;;20.47;;
18196;SDS011;9224;52.422;13.024;2022-11-15T03:16:21;30.30;;;20.07;;
18196;SDS011;9224;52.422;13.024;2022-11-15T03:18:52;26.63;;;18.70;;
18196;SDS011;9224;52.422;13.024;2022-11-15T03:21:23;29.40;;;19.60;;
18196;SDS011;9224;52.422;13.024;2022-11-15T03:23:50;33.20;;;20.23;;
18196;SDS011;9224;52.422;13.024;2022-11-15T03:26:18;29.60;;;20.30;;
18196;SDS011;9224;52.422;13.024;2022-11-15T03:28:47;27.33;;;19.13;;
18196;SDS011;9224;52.422;13.024;2022-11-15T03:31:16;31.27;;;20.20;;
18196;SDS011;9224;52.422;13.024;2022-11-15T03:34:03;29.27;;;19.17;;
18196;SDS011;9224;52.422;13.024;2022-11-15T03:36:32;27.30;;;19.33;;
18196;SDS011;9224;52.422;13.024;2022-11-15T03:39:00;27.63;;;18.67;;
18196;SDS011;9224;52.422;13.024;2022-11-15T03:41:29;28.67;;;20.10;;
18196;SDS011;9224;52.422;13.024;2022-11-15T03:44:03;29.13;;;19.87;;
18196;SDS011;9224;52.422;13.024;2022-11-15T03:46:34;28.60;;;19.20;;
18196;SDS011;9224;52.422;13.024;2022-11-15T03:49:06;27.70;;;19.40;;
18196;SDS011;9224;52.422;13.024;2022-11-15T03:51:35;28.47;;;19.53;;
18196;SDS011;9224;52.422;13.024;2022-11-15T03:54:02;26.53;;;18.63;;
18196;SDS011;9224;52.422;13.024;2022-11-15T03:56:48;25.63;;;18.50;;
18196;SDS011;9224;52.422;13.024;2022-11-15T03:59:33;26.87;;;18.57;;
18196;SDS011;9224;52.422;13.024;2022-11-15T04:02:19;30.33;;;18.47;;
18196;SDS011;9224;52.422;13.024;2022-11-15T04:05:06;28.10;;;18.60;;
18196;SDS011;9224;52.422;13.024;2022-11-15T04:07:51;26.70;;;18.60;;
18196;SDS011;9224;52.422;13.024;2022-11-15T04:10:37;25.27;;;18.30;;
18196;SDS011;9224;52.422;13.024;2022-11-15T04:13:22;25.53;;;18.60;;
18196;SDS011;9224;52.422;13.024;2022-11-15T04:15:49;26.33;;;18.47;;
18196;SDS011;9224;52.422;13.024;2022-11-15T04:18:15;26.27;;;18.63;;
18196;SDS011;9224;52.422;13.024;2022-11-15T04:20:43;27.10;;;18.90;;
18196;SDS011;9224;52.422;13.024;2022-11-15T04:23:27;27.07;;;18.57;;
18196;SDS011;9224;52.422;13.024;2022-11-15T04:26:12;27.20;;;18.70;;
18196;SDS011;9224;52.422;13.024;2022-11-15T04:28:41;28.17;;;18.53;;
18196;SDS011;9224;52.422;13.024;2022-11-15T04:31:22;27.47;;;18.13;;
18196;SDS011;9224;52.422;13.024;2022-11-15T04:33:49;29.77;;;18.27;;
18196;SDS011;9224;52.422;13.024;2022-11-15T04:36:17;27.43;;;18.33;;
18196;SDS011;9224;52.422;13.024;2022-11-15T04:39:00;22.83;;;17.53;;
18196;SDS011;9224;52.422;13.024;2022-11-15T04:41:27;26.87;;;18.53;;
18196;SDS011;9224;52.422;13.024;2022-11-15T04:43:54;26.63;;;18.60;;
18196;SDS011;9224;52.422;13.024;2022-11-15T04:46:21;26.57;;;19.00;;
18196;SDS011;9224;52.422;13.024;2022-11-15T04:48:48;30.03;;;20.13;;
18196;SDS011;9224;52.422;13.024;2022-11-15T04:51:16;30.27;;;21.00;;
18196;SDS011;9224;52.422;13.024;2022-11-15T04:53:43;30.20;;;21.60;;
18196;SDS011;9224;52.422;13.024;2022-11-15T04:56:10;33.23;;;21.60;;
18196;SDS011;9224;52.422;13.024;2022-11-15T04:58:37;31.60;;;21.20;;
18196;SDS011;9224;52.422;13.024;2022-11-15T05:01:06;30.97;;;21.07;;
18196;SDS011;9224;52.422;13.024;2022-11-15T05:03:33;30.63;;;21.07;;
18196;SDS011;9224;52.422;13.024;2022-11-15T05:06:18;30.13;;;20.60;;
18196;SDS011;9224;52.422;13.024;2022-11-15T05:08:45;30.37;;;20.53;;
18196;SDS011;9224;52.422;13.024;2022-11-15T05:11:12;26.97;;;19.60;;
18196;SDS011;9224;52.422;13.024;2022-11-15T05:13:38;29.10;;;21.00;;
18196;SDS011;9224;52.422;13.024;2022-11-15T05:16:05;31.70;;;20.43;;
18196;SDS011;9224;52.422;13.024;2022-11-15T05:18:32;30.10;;;19.63;;
18196;SDS011;9224;52.422;13.024;2022-11-15T05:21:02;32.37;;;19.73;;
18196;SDS011;9224;52.422;13.024;2022-11-15T05:23:31;31.97;;;20.97;;
18196;SDS011;9224;52.422;13.024;2022-11-15T05:25:58;31.33;;;21.40;;
18196;SDS011;9224;52.422;13.024;2022-11-15T05:28:25;27.53;;;19.67;;
18196;SDS011;9224;52.422;13.024;2022-11-15T05:30:52;25.97;;;19.13;;
18196;SDS011;9224;52.422;13.024;2022-11-15T05:33:18;30.10;;;19.83;;
18196;SDS011;9224;52.422;13.024;2022-11-15T05:35:46;29.77;;;19.20;;
18196;SDS011;9224;52.422;13.024;2022-11-15T05:38:15;29.03;;;19.37;;
18196;SDS011;9224;52.422;13.024;2022-11-15T05:40:43;26.40;;;19.47;;
18196;SDS011;9224;52.422;13.024;2022-11-15T05:43:10;28.43;;;19.73;;
18196;SDS011;9224;52.422;13.024;2022-11-15T05:45:36;29.17;;;20.07;;
18196;SDS011;9224;52.422;13.024;2022-11-15T05:48:04;29.53;;;19.77;;
18196;SDS011;9224;52.422;13.024;2022-11-15T05:50:32;34.53;;;26.40;;
18196;SDS011;9224;52.422;13.024;2022-11-15T05:53:00;36.42;;;26.77;;
18196;SDS011;9224;52.422;13.024;2022-11-15T05:55:27;33.78;;;26.63;;
18196;SDS011;9224;52.422;13.024;2022-11-15T05:57:56;34.10;;;26.75;;
18196;SDS011;9224;52.422;13.024;2022-11-15T06:00:22;32.10;;;25.85;;
18196;SDS011;9224;52.422;13.024;2022-11-15T06:02:49;33.65;;;25.63;;
18196;SDS011;9224;52.422;13.024;2022-11-15T06:05:16;31.20;;;25.30;;
18196;SDS011;9224;52.422;13.024;2022-11-15T06:07:42;29.48;;;24.50;;
18196;SDS011;9224;52.422;13.024;2022-11-15T06:10:09;33.33;;;26.33;;
18196;SDS011;9224;52.422;13.024;2022-11-15T06:12:36;30.50;;;24.63;;
18196;SDS011;9224;52.422;13.024;2022-11-15T06:15:05;33.23;;;25.20;;
18196;SDS011;9224;52.422;13.024;2022-11-15T06:17:32;30.17;;;24.70;;
18196;SDS011;9224;52.422;13.024;2022-11-15T06:19:58;32.03;;;24.98;;
18196;SDS011;9224;52.422;13.024;2022-11-15T06:22:25;32.60;;;24.88;;
18196;SDS011;9224;52.422;13.024;2022-11-15T06:24:52;30.70;;;24.38;;
18196;SDS011;9224;52.422;13.024;2022-11-15T06:27:18;29.73;;;24.20;;
18196;SDS011;9224;52.422;13.024;2022-11-15T06:29:45;29.45;;;23.70;;
18196;SDS011;9224;52.422;13.024;2022-11-15T06:32:13;27.43;;;22.77;;
18196;SDS011;9224;52.422;13.024;2022-11-15T06:34:39;27.30;;;23.08;;
18196;SDS011;9224;52.422;13.024;2022-11-15T06:37:06;26.83;;;22.50;;
18196;SDS011;9224;52.422;13.024;2022-11-15T06:39:33;28.98;;;23.08;;
18196;SDS011;9224;52.422;13.024;2022-11-15T06:41:59;28.10;;;23.60;;
18196;SDS011;9224;52.422;13.024;2022-11-15T06:44:26;31.35;;;24.02;;
18196;SDS011;9224;52.422;13.024;2022-11-15T06:46:52;30.30;;;23.95;;
18196;SDS011;9224;52.422;13.024;2022-11-15T06:49:20;30.40;;;23.90;;
18196;SDS011;9224;52.422;13.024;2022-11-15T06:51:47;31.73;;;25.00;;
18196;SDS011;9224;52.422;13.024;2022-11-15T06:54:13;28.58;;;23.17;;
18196;SDS011;9224;52.422;13.024;2022-11-15T06:56:40;29.75;;;22.70;;
18196;SDS011;9224;52.422;13.024;2022-11-15T06:59:07;29.65;;;23.42;;
18196;SDS011;9224;52.422;13.024;2022-11-15T07:01:33;27.92;;;23.15;;
18196;SDS011;9224;52.422;13.024;2022-11-15T07:04:00;30.58;;;23.90;;
18196;SDS011;9224;52.422;13.024;2022-11-15T07:06:28;30.98;;;24.23;;
18196;SDS011;9224;52.422;13.024;2022-11-15T07:08:55;30.75;;;23.83;;
18196;SDS011;9224;52.422;13.024;2022-11-15T07:11:21;31.47;;;23.97;;
18196;SDS011;9224;52.422;13.024;2022-11-15T07:13:48;31.02;;;24.40;;
18196;SDS011;9224;52.422;13.024;2022-11-15T07:16:14;31.10;;;24.15;;
18196;SDS011;9224;52.422;13.024;2022-11-15T07:18:41;30.27;;;24.02;;
18196;SDS011;9224;52.422;13.024;2022-11-15T07:21:08;33.35;;;24.65;;
18196;SDS011;9224;52.422;13.024;2022-11-15T07:23:37;31.40;;;24.48;;
18196;SDS011;9224;52.422;13.024;2022-11-15T07:26:04;31.02;;;24.83;;
18196;SDS011;9224;52.422;13.024;2022-11-15T07:28:31;32.40;;;24.70;;
18196;SDS011;9224;52.422;13.024;2022-11-15T07:31:01;30.45;;;24.70;;
18196;SDS011;9224;52.422;13.024;2022-11-15T07:33:28;32.70;;;24.95;;
18196;SDS011;9224;52.422;13.024;2022-11-15T07:35:57;31.13;;;24.98;;
18196;SDS011;9224;52.422;13.024;2022-11-15T07:38:26;33.75;;;25.67;;
18196;SDS011;9224;52.422;13.024;2022-11-15T07:40:56;37.47;;;26.80;;
18196;SDS011;9224;52.422;13.024;2022-11-15T07:43:23;32.97;;;26.37;;
18196;SDS011;9224;52.422;13.024;2022-11-15T07:45:50;32.35;;;25.73;;
18196;SDS011;9224;52.422;13.024;2022-11-15T07:48:17;33.22;;;26.30;;
18196;SDS011;9224;52.422;13.024;2022-11-15T07:50:43;34.05;;;25.45;;
18196;SDS011;9224;52.422;13.024;2022-11-15T07:53:10;32.85;;;25.95;;
18196;SDS011;9224;52.422;13.024;2022-11-15T07:55:36;31.73;;;25.83;;
18196;SDS011;9224;52.422;13.024;2022-11-15T07:58:05;32.60;;;26.08;;
18196;SDS011;9224;52.422;13.024;2022-11-15T08:00:33;34.10;;;25.88;;
18196;SDS011;9224;52.422;13.024;2022-11-15T08:03:03;33.90;;;25.50;;
18196;SDS011;9224;52.422;13.024;2022-11-15T08:05:30;31.05;;;25.30;;
18196;SDS011;9224;52.422;13.024;2022-11-15T08:07:57;30.98;;;24.70;;
18196;SDS011;9224;52.422;13.024;2022-11-15T08:10:24;29.90;;;25.58;;
18196;SDS011;9224;52.422;13.024;2022-11-15T08:12:56;30.60;;;24.95;;
18196;SDS011;9224;52.422;13.024;2022-11-15T08:15:25;31.25;;;25.08;;
18196;SDS011;9224;52.422;13.024;2022-11-15T08:17:55;31.80;;;25.77;;
18196;SDS011;9224;52.422;13.024;2022-11-15T08:20:22;28.23;;;23.65;;
18196;SDS011;9224;52.422;13.024;2022-11-15T08:22:49;31.25;;;25.50;;
18196;SDS011;9224;52.422;13.024;2022-11-15T08:25:15;30.40;;;25.25;;
18196;SDS011;9224;52.422;13.024;2022-11-15T08:27:42;27.92;;;24.30;;
18196;SDS011;9224;52.422;13.024;2022-11-15T08:30:09;28.98;;;24.35;;
18196;SDS011;9224;52.422;13.024;2022-11-15T08:32:38;27.48;;;23.38;;
18196;SDS011;9224;52.422;13.024;2022-11-15T08:35:05;26.13;;;23.27;;
18196;SDS011;9224;52.422;13.024;2022-11-15T08:37:32;27.73;;;23.83;;
18196;SDS011;9224;52.422;13.024;2022-11-15T08:39:59;27.63;;;23.63;;
18196;SDS011;9224;52.422;13.024;2022-11-15T08:42:25;26.42;;;22.60;;
18196;SDS011;9224;52.422;13.024;2022-11-15T08:44:52;24.83;;;22.02;;
18196;SDS011;9224;52.422;13.024;2022-11-15T08:47:19;25.25;;;21.70;;
18196;SDS011;9224;52.422;13.024;2022-11-15T08:49:47;24.83;;;22.13;;
18196;SDS011;9224;52.422;13.024;2022-11-15T08:52:13;25.10;;;22.17;;
18196;SDS011;9224;52.422;13.024;2022-11-15T08:54:40;26.10;;;22.30;;
18196;SDS011;9224;52.422;13.024;2022-11-15T08:57:07;25.33;;;21.83;;
18196;SDS011;9224;52.422;13.024;2022-11-15T08:59:34;24.23;;;21.45;;
18196;SDS011;9224;52.422;13.024;2022-11-15T09:02:01;25.38;;;21.55;;
18196;SDS011;9224;52.422;13.024;2022-11-15T09:04:28;24.77;;;21.48;;
18196;SDS011;9224;52.422;13.024;2022-11-15T09:06:56;23.63;;;21.13;;
18196;SDS011;9224;52.422;13.024;2022-11-15T09:09:22;23.57;;;21.03;;
18196;SDS011;9224;52.422;13.024;2022-11-15T09:11:49;23.40;;;20.88;;
18196;SDS011;9224;52.422;13.024;2022-11-15T09:14:15;23.38;;;20.88;;
18196;SDS011;9224;52.422;13.024;2022-11-15T09:16:42;23.15;;;20.70;;
18196;SDS011;9224;52.422;13.024;2022-11-15T09:19:09;23.23;;;20.55;;
18196;SDS011;9224;52.422;13.024;2022-11-15T09:21:35;22.75;;;20.30;;
18196;SDS011;9224;52.422;13.024;2022-11-15T09:24:03;24.05;;;21.40;;
18196;SDS011;9224;52.422;13.024;2022-11-15T09:26:30;23.00;;;20.60;;
18196;SDS011;9224;52.422;13.024;2022-11-15T09:28:57;25.20;;;20.57;;
18196;SDS011;9224;52.422;13.024;2022-11-15T09:31:24;23.17;;;20.55;;
18196;SDS011;9224;52.422;13.024;2022-11-15T09:33:50;22.45;;;20.02;;
18196;SDS011;9224;52.422;13.024;2022-11-15T09:36:17;22.48;;;20.17;;
18196;SDS011;9224;52.422;13.024;2022-11-15T09:38:44;23.13;;;20.70;;
18196;SDS011;9224;52.422;13.024;2022-11-15T09:44:09;22.45;;;20.15;;
18196;SDS011;9224;52.422;13.024;2022-11-15T09:46:48;21.02;;;18.83;;
18196;SDS011;9224;52.422;13.024;2022-11-15T09:49:21;23.27;;;19.38;;
18196;SDS011;9224;52.422;13.024;2022-11-15T09:51:49;21.65;;;19.08;;
18196;SDS011;9224;52.422;13.024;2022-11-15T09:54:20;21.67;;;19.02;;
18196;SDS011;9224;52.422;13.024;2022-11-15T09:56:54;21.13;;;18.85;;
18196;SDS011;9224;52.422;13.024;2022-11-15T09:59:26;21.05;;;18.88;;
18196;SDS011;9224;52.422;13.024;2022-11-15T10:02:01;20.20;;;18.10;;
18196;SDS011;9224;52.422;13.024;2022-11-15T10:04:38;21.33;;;18.08;;
18196;SDS011;9224;52.422;13.024;2022-11-15T10:07:25;20.80;;;18.05;;
18196;SDS011;9224;52.422;13.024;2022-11-15T10:10:14;19.83;;;17.73;;
18196;SDS011;9224;52.422;13.024;2022-11-15T10:13:04;19.30;;;17.30;;
18196;SDS011;9224;52.422;13.024;2022-11-15T10:15:49;19.75;;;17.65;;
18196;SDS011;9224;52.422;13.024;2022-11-15T10:18:21;19.63;;;17.55;;
18196;SDS011;9224;52.422;13.024;2022-11-15T10:20:54;18.60;;;16.60;;
18196;SDS011;9224;52.422;13.024;2022-11-15T10:23:38;19.33;;;17.33;;
18196;SDS011;9224;52.422;13.024;2022-11-15T10:26:07;18.35;;;16.40;;
18196;SDS011;9224;52.422;13.024;2022-11-15T10:28:36;17.85;;;16.05;;
18196;SDS011;9224;52.422;13.024;2022-11-15T10:31:02;18.67;;;16.60;;
18196;SDS011;9224;52.422;13.024;2022-11-15T10:33:36;17.77;;;15.98;;
18196;SDS011;9224;52.422;13.024;2022-11-15T10:36:17;16.67;;;15.07;;
18196;SDS011;9224;52.422;13.024;2022-11-15T10:38:51;18.20;;;15.25;;
18196;SDS011;9224;52.422;13.024;2022-11-15T10:41:20;17.73;;;15.67;;
18196;SDS011;9224;52.422;13.024;2022-11-15T10:44:02;17.02;;;15.10;;
18196;SDS011;9224;52.422;13.024;2022-11-15T10:46:44;17.67;;;15.18;;
18196;SDS011;9224;52.422;13.024;2022-11-15T10:49:14;16.48;;;14.77;;
18196;SDS011;9224;52.422;13.024;2022-11-15T10:51:43;16.50;;;14.80;;
18196;SDS011;9224;52.422;13.024;2022-11-15T10:54:11;15.07;;;13.53;;
18196;SDS011;9224;52.422;13.024;2022-11-15T10:56:39;15.65;;;13.95;;
18196;SDS011;9224;52.422;13.024;2022-11-15T10:59:12;16.02;;;14.38;;
18196;SDS011;9224;52.422;13.024;2022-11-15T11:02:00;15.13;;;13.27;;
18196;SDS011;9224;52.422;13.024;2022-11-15T11:04:26;15.02;;;13.52;;
18196;SDS011;9224;52.422;13.024;2022-11-15T11:06:55;15.13;;;13.57;;
18196;SDS011;9224;52.422;13.024;2022-11-15T11:09:27;14.75;;;13.23;;
18196;SDS011;9224;52.422;13.024;2022-11-15T11:11:55;15.75;;;14.10;;
18196;SDS011;9224;52.422;13.024;2022-11-15T11:14:23;14.75;;;13.35;;
18196;SDS011;9224;52.422;13.024;2022-11-15T11:16:52;14.80;;;13.23;;
18196;SDS011;9224;52.422;13.024;2022-11-15T11:22:18;15.87;;;13.50;;
18196;SDS011;9224;52.422;13.024;2022-11-15T11:24:51;14.45;;;13.00;;
18196;SDS011;9224;52.422;13.024;2022-11-15T11:27:29;13.52;;;12.23;;
18196;SDS011;9224;52.422;13.024;2022-11-15T11:30:06;13.68;;;12.38;;
18196;SDS011;9224;52.422;13.024;2022-11-15T11:35:32;12.95;;;11.65;;
18196;SDS011;9224;52.422;13.024;2022-11-15T11:38:15;13.82;;;12.43;;
18196;SDS011;9224;52.422;13.024;2022-11-15T11:40:54;12.52;;;11.23;;
18196;SDS011;9224;52.422;13.024;2022-11-15T11:43:28;13.43;;;12.02;;
18196;SDS011;9224;52.422;13.024;2022-11-15T11:46:05;12.40;;;11.27;;
18196;SDS011;9224;52.422;13.024;2022-11-15T11:48:40;13.23;;;11.20;;
18196;SDS011;9224;52.422;13.024;2022-11-15T11:51:10;13.00;;;11.70;;
18196;SDS011;9224;52.422;13.024;2022-11-15T11:53:41;12.97;;;11.57;;
18196;SDS011;9224;52.422;13.024;2022-11-15T11:56:16;13.07;;;11.77;;
18196;SDS011;9224;52.422;13.024;2022-11-15T11:58:45;11.82;;;10.73;;
18196;SDS011;9224;52.422;13.024;2022-11-15T12:01:15;12.75;;;11.45;;
18196;SDS011;9224;52.422;13.024;2022-11-15T12:03:45;12.18;;;10.98;;
18196;SDS011;9224;52.422;13.024;2022-11-15T12:06:19;12.07;;;10.77;;
18196;SDS011;9224;52.422;13.024;2022-11-15T12:08:50;11.95;;;10.77;;
18196;SDS011;9224;52.422;13.024;2022-11-15T12:11:20;13.13;;;10.88;;
18196;SDS011;9224;52.422;13.024;2022-11-15T12:13:51;11.93;;;10.70;;
18196;SDS011;9224;52.422;13.024;2022-11-15T12:16:24;11.07;;;9.90;;
18196;SDS011;9224;52.422;13.024;2022-11-15T12:18:54;11.35;;;10.25;;
18196;SDS011;9224;52.422;13.024;2022-11-15T12:21:22;10.83;;;9.80;;
18196;SDS011;9224;52.422;13.024;2022-11-15T12:23:54;11.57;;;10.20;;
18196;SDS011;9224;52.422;13.024;2022-11-15T12:26:25;11.27;;;10.07;;
18196;SDS011;9224;52.422;13.024;2022-11-15T12:28:54;10.70;;;9.70;;
18196;SDS011;9224;52.422;13.024;2022-11-15T12:31:24;11.82;;;10.52;;
18196;SDS011;9224;52.422;13.024;2022-11-15T12:33:56;10.93;;;9.77;;
18196;SDS011;9224;52.422;13.024;2022-11-15T12:36:35;11.30;;;10.18;;
18196;SDS011;9224;52.422;13.024;2022-11-15T12:40:03;11.18;;;9.77;;
18196;SDS011;9224;52.422;13.024;2022-11-15T12:42:56;10.43;;;9.35;;
18196;SDS011;9224;52.422;13.024;2022-11-15T12:45:26;10.68;;;9.45;;
18196;SDS011;9224;52.422;13.024;2022-11-15T12:47:55;11.38;;;9.43;;
18196;SDS011;9224;52.422;13.024;2022-11-15T12:53:27;10.32;;;9.25;;
18196;SDS011;9224;52.422;13.024;2022-11-15T12:58:57;10.63;;;9.25;;
18196;SDS011;9224;52.422;13.024;2022-11-15T13:04:27;9.15;;;8.25;;
18196;SDS011;9224;52.422;13.024;2022-11-15T13:06:57;9.95;;;8.88;;
18196;SDS011;9224;52.422;13.024;2022-11-15T13:21:20;9.25;;;8.00;;
18196;SDS011;9224;52.422;13.024;2022-11-15T13:24:10;9.00;;;8.15;;
18196;SDS011;9224;52.422;13.024;2022-11-15T13:26:39;9.15;;;8.25;;
18196;SDS011;9224;52.422;13.024;2022-11-15T13:29:12;9.85;;;8.48;;
18196;SDS011;9224;52.422;13.024;2022-11-15T13:31:42;10.50;;;9.00;;
18196;SDS011;9224;52.422;13.024;2022-11-15T13:34:15;9.30;;;8.40;;
18196;SDS011;9224;52.422;13.024;2022-11-15T13:36:54;9.63;;;8.63;;
18196;SDS011;9224;52.422;13.024;2022-11-15T13:39:26;10.18;;;8.60;;
18196;SDS011;9224;52.422;13.024;2022-11-15T13:41:54;9.27;;;8.38;;
18196;SDS011;9224;52.422;13.024;2022-11-15T13:44:22;9.77;;;8.60;;
18196;SDS011;9224;52.422;13.024;2022-11-15T13:46:59;9.60;;;8.60;;
18196;SDS011;9224;52.422;13.024;2022-11-15T13:49:28;9.60;;;8.40;;
18196;SDS011;9224;52.422;13.024;2022-11-15T13:51:57;9.65;;;8.75;;
18196;SDS011;9224;52.422;13.024;2022-11-15T13:54:25;9.65;;;8.63;;
18196;SDS011;9224;52.422;13.024;2022-11-15T13:56:55;9.07;;;8.17;;
18196;SDS011;9224;52.422;13.024;2022-11-15T13:59:25;9.82;;;8.07;;
18196;SDS011;9224;52.422;13.024;2022-11-15T14:01:53;9.27;;;8.20;;
18196;SDS011;9224;52.422;13.024;2022-11-15T14:04:20;9.15;;;8.25;;
18196;SDS011;9224;52.422;13.024;2022-11-15T14:06:52;8.70;;;7.90;;
18196;SDS011;9224;52.422;13.024;2022-11-15T14:09:31;8.57;;;7.78;;
18196;SDS011;9224;52.422;13.024;2022-11-15T14:12:00;10.00;;;7.63;;
18196;SDS011;9224;52.422;13.024;2022-11-15T14:14:28;8.35;;;7.55;;
18196;SDS011;9224;52.422;13.024;2022-11-15T14:16:56;8.23;;;7.28;;
18196;SDS011;9224;52.422;13.024;2022-11-15T14:19:34;8.13;;;7.32;;
18196;SDS011;9224;52.422;13.024;2022-11-15T14:22:13;8.05;;;7.25;;
18196;SDS011;9224;52.422;13.024;2022-11-15T14:24:42;9.07;;;7.72;;
18196;SDS011;9224;52.422;13.024;2022-11-15T14:29:58;11.70;;;7.90;;
18196;SDS011;9224;52.422;13.024;2022-11-15T14:32:25;9.10;;;8.13;;
18196;SDS011;9224;52.422;13.024;2022-11-15T14:34:54;8.85;;;7.60;;
18196;SDS011;9224;52.422;13.024;2022-11-15T14:37:22;8.85;;;7.80;;
18196;SDS011;9224;52.422;13.024;2022-11-15T14:39:51;8.50;;;7.60;;
18196;SDS011;9224;52.422;13.024;2022-11-15T14:42:18;10.00;;;7.78;;
18196;SDS011;9224;52.422;13.024;2022-11-15T14:44:45;8.98;;;7.88;;
18196;SDS011;9224;52.422;13.024;2022-11-15T14:47:12;8.82;;;8.00;;
18196;SDS011;9224;52.422;13.024;2022-11-15T14:49:39;8.70;;;7.80;;
18196;SDS011;9224;52.422;13.024;2022-11-15T14:52:09;9.57;;;8.68;;
18196;SDS011;9224;52.422;13.024;2022-11-15T14:54:47;9.60;;;8.63;;
18196;SDS011;9224;52.422;13.024;2022-11-15T14:57:15;9.95;;;7.97;;
18196;SDS011;9224;52.422;13.024;2022-11-15T14:59:42;8.77;;;7.97;;
18196;SDS011;9224;52.422;13.024;2022-11-15T15:02:09;8.73;;;7.82;;
18196;SDS011;9224;52.422;13.024;2022-11-15T15:04:41;9.05;;;7.72;;
18196;SDS011;9224;52.422;13.024;2022-11-15T15:07:08;8.95;;;8.05;;
18196;SDS011;9224;52.422;13.024;2022-11-15T15:09:34;8.88;;;8.05;;
18196;SDS011;9224;52.422;13.024;2022-11-15T15:12:01;8.90;;;8.00;;
18196;SDS011;9224;52.422;13.024;2022-11-15T15:14:29;9.25;;;8.38;;
18196;SDS011;9224;52.422;13.024;2022-11-15T15:16:55;9.65;;;8.50;;
18196;SDS011;9224;52.422;13.024;2022-11-15T15:19:22;9.13;;;8.23;;